Time;durP1;ratioP1;P1;durP2;ratioP2;P2;SDS_P1;SDS_P2;PMS_P1;PMS_P2;Temp;Humidity;BMP_temperature;BMP_pressure;BME280_temperature;BME280_humidity;BME280_pressure;Samples;Min_cycle;Max_cycle;Signal;HPM_P1;HPM_P2
2024/03/30 00:00:23;;;;;;;36.15;26.20;;;;;;;15.15;91.89;99859.88;5097046;28;20058;-76
2024/03/30 00:03:33;;;;;;;36.30;26.23;;;;;;;15.37;91.58;99853.66;5096890;28;20047;-77
2024/03/30 00:06:37;;;;;;;38.45;26.63;;;;;;;15.47;90.80;99850.75;5072834;28;20051;-75
2024/03/30 00:09:51;;;;;;;37.80;25.67;;;;;;;15.38;90.74;99851.81;5073803;28;20047;-77
2024/03/30 00:12:56;;;;;;;37.00;26.35;;;;;;;15.25;91.06;99846.13;5082499;28;20051;-77
2024/03/30 00:16:11;;;;;;;35.08;25.52;;;;;;;15.25;90.58;99838.88;5096375;28;20402;-77
2024/03/30 00:19:21;;;;;;;34.95;25.40;;;;;;;15.20;90.72;99826.88;5096306;28;20047;-78
2024/03/30 00:22:32;;;;;;;37.13;26.27;;;;;;;15.09;91.06;99827.25;5084220;28;20047;-77
2024/03/30 00:25:36;;;;;;;37.15;26.58;;;;;;;15.12;91.01;99826.91;5095913;28;20047;-77
2024/03/30 00:28:41;;;;;;;37.60;26.13;;;;;;;15.10;91.69;99812.75;5095932;28;20063;-77
2024/03/30 00:31:49;;;;;;;34.78;25.42;;;;;;;15.19;90.83;99801.72;5096679;28;20051;-79
2024/03/30 00:34:57;;;;;;;35.13;25.00;;;;;;;15.14;91.07;99797.84;5096278;28;20047;-78
2024/03/30 00:38:07;;;;;;;31.92;23.70;;;;;;;15.08;91.59;99795.88;5072473;28;20075;-78
2024/03/30 00:41:16;;;;;;;33.72;26.10;;;;;;;14.98;92.06;99793.38;5096326;28;20477;-78
2024/03/30 00:44:20;;;;;;;39.00;25.10;;;;;;;14.95;92.13;99780.22;5071830;28;20126;-78
2024/03/30 00:47:25;;;;;;;44.08;26.23;;;;;;;15.21;90.78;99783.44;5083394;28;20055;-78
2024/03/30 00:50:30;;;;;;;37.13;25.50;;;;;;;15.23;90.81;99778.72;5096033;28;20051;-78
2024/03/30 00:53:35;;;;;;;42.55;26.23;;;;;;;15.27;90.91;99771.06;5095582;28;20047;-78
2024/03/30 00:56:40;;;;;;;41.17;25.95;;;;;;;15.28;91.12;99760.06;5059458;28;20386;-80
2024/03/30 00:59:44;;;;;;;42.92;26.10;;;;;;;15.32;91.32;99747.03;5094552;28;20051;-79
2024/03/30 01:02:49;;;;;;;44.08;28.13;;;;;;;15.30;91.24;99759.91;5095811;28;20047;-79
2024/03/30 01:05:53;;;;;;;50.33;27.42;;;;;;;15.14;91.97;99766.25;5095738;28;20047;-79
2024/03/30 01:08:58;;;;;;;43.38;26.55;;;;;;;14.98;93.22;99759.09;5083170;28;20067;-77
2024/03/30 01:12:03;;;;;;;40.53;26.35;;;;;;;15.16;93.02;99757.97;5095571;28;20051;-75
2024/03/30 01:15:08;;;;;;;47.65;27.25;;;;;;;15.16;93.28;99753.38;5094904;28;20059;-77
2024/03/30 01:18:13;;;;;;;43.53;27.38;;;;;;;15.21;93.34;99755.59;5095247;28;20047;-77
2024/03/30 01:21:18;;;;;;;50.28;27.77;;;;;;;15.18;93.01;99754.06;5095376;28;20506;-77
2024/03/30 01:24:22;;;;;;;49.58;28.08;;;;;;;15.19;93.02;99752.19;5095367;28;20055;-78
2024/03/30 01:27:27;;;;;;;54.67;30.13;;;;;;;15.10;93.77;99761.38;5082742;28;20051;-78
2024/03/30 01:30:32;;;;;;;46.55;28.40;;;;;;;15.17;93.54;99744.28;5095009;28;20485;-76
2024/03/30 01:33:38;;;;;;;54.80;29.73;;;;;;;15.26;92.82;99751.31;5095025;28;20065;-78
2024/03/30 01:36:45;;;;;;;46.65;28.20;;;;;;;15.29;92.32;99747.41;5094818;28;20055;-78
2024/03/30 01:39:50;;;;;;;50.33;29.13;;;;;;;15.25;92.61;99741.53;5094652;28;20057;-77
2024/03/30 01:42:54;;;;;;;50.85;28.00;;;;;;;15.25;92.80;99748.78;5095201;28;20485;-78
2024/03/30 01:45:59;;;;;;;62.80;29.77;;;;;;;15.11;93.68;99749.56;5094577;28;20498;-77
2024/03/30 01:49:04;;;;;;;68.70;31.08;;;;;;;15.14;92.88;99747.31;5081819;28;20047;-78
2024/03/30 01:52:09;;;;;;;54.58;29.98;;;;;;;15.03;93.74;99747.75;5094649;28;20498;-78
2024/03/30 01:55:13;;;;;;;67.13;31.05;;;;;;;15.00;94.12;99756.19;5094172;28;20055;-78
2024/03/30 01:58:28;;;;;;;69.20;32.10;;;;;;;15.02;94.50;99751.47;5094494;28;20075;-78
2024/03/30 02:01:32;;;;;;;63.97;30.85;;;;;;;15.09;94.45;99741.63;5094598;28;20047;-77
2024/03/30 02:04:40;;;;;;;64.45;31.58;;;;;;;14.95;94.87;99745.94;5094390;28;20059;-78
2024/03/30 02:07:46;;;;;;;69.90;32.60;;;;;;;14.92;95.28;99745.44;5094405;28;20063;-77
2024/03/30 02:10:51;;;;;;;60.15;31.00;;;;;;;14.90;95.60;99742.91;5094096;28;20117;-77
2024/03/30 02:13:55;;;;;;;55.83;31.48;;;;;;;14.93;95.15;99742.56;5094065;28;20043;-78
2024/03/30 02:17:00;;;;;;;59.67;32.45;;;;;;;14.81;95.63;99737.72;5094290;28;20359;-77
2024/03/30 02:20:05;;;;;;;54.55;30.67;;;;;;;14.77;95.77;99739.94;5082026;28;20055;-79
2024/03/30 02:23:14;;;;;;;47.80;29.48;;;;;;;14.84;95.79;99732.81;5094169;28;20063;-77
2024/03/30 02:26:19;;;;;;;57.22;32.15;;;;;;;14.94;94.94;99722.63;5081539;28;20071;-79
2024/03/30 02:29:26;;;;;;;58.40;30.77;;;;;;;14.95;94.53;99727.00;5093891;28;20051;-79
2024/03/30 02:32:31;;;;;;;50.05;30.42;;;;;;;14.97;94.25;99727.66;5074102;28;20386;-78
2024/03/30 02:35:36;;;;;;;59.05;32.10;;;;;;;15.02;94.56;99718.16;5073451;28;20048;-78
2024/03/30 02:38:40;;;;;;;53.00;30.85;;;;;;;15.08;93.93;99726.44;5032205;28;20060;-78
2024/03/30 02:41:45;;;;;;;63.13;32.25;;;;;;;15.12;93.58;99726.91;5031594;28;20263;-77
2024/03/30 02:44:50;;;;;;;60.22;31.80;;;;;;;15.05;93.72;99725.94;5031281;28;20056;-76
2024/03/30 02:47:54;;;;;;;54.55;31.60;;;;;;;15.12;93.54;99718.78;5031568;28;20052;-76
2024/03/30 02:50:58;;;;;;;57.25;30.35;;;;;;;15.12;93.27;99705.28;5031459;28;20141;-76
2024/03/30 02:54:02;;;;;;;52.22;29.83;;;;;;;15.07;93.32;99696.84;5031177;28;20456;-76
2024/03/30 02:57:07;;;;;;;52.83;28.83;;;;;;;15.19;92.54;99690.84;5031157;28;20523;-77
2024/03/30 03:00:13;;;;;;;52.17;29.98;;;;;;;15.06;93.51;99684.38;5031299;28;20068;-78
2024/03/30 03:03:17;;;;;;;47.38;27.77;;;;;;;15.12;92.93;99680.94;5031390;28;20057;-78
2024/03/30 03:06:22;;;;;;;45.50;29.83;;;;;;;15.03;93.48;99676.63;5030940;28;20061;-78
2024/03/30 03:09:26;;;;;;;57.85;29.85;;;;;;;14.90;94.07;99674.50;5031158;28;20048;-77
2024/03/30 03:12:31;;;;;;;49.10;29.45;;;;;;;14.81;94.72;99671.00;5019788;28;20443;-78
2024/03/30 03:15:38;;;;;;;47.75;27.95;;;;;;;14.93;94.38;99666.91;5041274;28;20044;-78
2024/03/30 03:18:42;;;;;;;56.70;31.73;;;;;;;15.08;93.51;99668.81;5073271;28;20114;-79
2024/03/30 03:21:50;;;;;;;55.33;30.98;;;;;;;14.97;93.52;99660.09;5061972;28;20052;-78
2024/03/30 03:24:54;;;;;;;52.75;29.10;;;;;;;14.80;94.48;99672.03;5077048;28;20055;-77
2024/03/30 03:27:59;;;;;;;51.40;29.38;;;;;;;14.67;95.92;99660.97;5064706;28;20422;-77
2024/03/30 03:31:03;;;;;;;49.22;28.42;;;;;;;14.94;95.07;99663.16;5077428;28;20518;-78
2024/03/30 03:34:09;;;;;;;49.95;30.70;;;;;;;15.01;94.91;99662.44;5077325;28;20762;-77
2024/03/30 03:37:13;;;;;;;45.08;28.60;;;;;;;14.91;95.08;99652.69;5077078;28;20403;-75
2024/03/30 03:40:17;;;;;;;57.53;30.65;;;;;;;15.04;94.76;99652.09;5077662;28;20060;-77
2024/03/30 03:43:23;;;;;;;56.80;32.15;;;;;;;15.09;93.88;99649.72;5077285;28;20056;-77
2024/03/30 03:46:31;;;;;;;55.08;30.27;;;;;;;15.07;94.67;99645.50;5064887;28;20055;-78
2024/03/30 03:49:35;;;;;;;57.65;31.42;;;;;;;15.05;94.53;99637.59;5064499;28;20047;-77
2024/03/30 03:52:39;;;;;;;49.72;27.63;;;;;;;15.09;94.18;99638.03;5064601;28;20044;-77
2024/03/30 03:55:45;;;;;;;49.92;30.40;;;;;;;15.01;94.93;99651.66;5076483;28;20070;-77
2024/03/30 03:58:49;;;;;;;55.20;30.70;;;;;;;14.98;95.05;99637.47;5076598;28;20490;-78
2024/03/30 04:01:54;;;;;;;55.88;29.85;;;;;;;15.06;95.00;99630.31;5053312;28;20052;-79
2024/03/30 04:04:58;;;;;;;53.88;29.13;;;;;;;14.71;96.28;99627.19;5064590;28;20048;-78
2024/03/30 04:08:03;;;;;;;45.17;29.58;;;;;;;14.82;95.54;99625.91;5076923;28;20482;-78
2024/03/30 04:11:07;;;;;;;46.25;28.23;;;;;;;14.85;95.73;99626.41;5064517;28;20047;-77
2024/03/30 04:14:12;;;;;;;50.40;30.25;;;;;;;14.99;95.05;99632.88;5076764;28;20490;-77
2024/03/30 04:17:16;;;;;;;53.30;29.15;;;;;;;14.95;95.02;99631.56;5063842;28;20055;-76
2024/03/30 04:20:21;;;;;;;50.20;30.02;;;;;;;14.83;95.72;99617.66;5077258;28;20059;-78
2024/03/30 04:23:31;;;;;;;45.33;26.85;;;;;;;14.91;95.65;99606.75;5076090;28;20063;-78
2024/03/30 04:26:36;;;;;;;56.72;30.85;;;;;;;15.07;94.85;99613.06;5076615;28;20047;-78
2024/03/30 04:29:41;;;;;;;56.13;31.52;;;;;;;15.50;92.72;99615.91;5076272;28;20051;-78
2024/03/30 04:32:45;;;;;;;53.65;30.35;;;;;;;15.16;93.87;99618.22;5076217;28;20044;-77
2024/03/30 04:36:06;;;;;;;53.08;30.95;;;;;;;15.12;94.55;99607.94;5076078;28;20071;-79
2024/03/30 04:39:11;;;;;;;51.65;31.13;;;;;;;14.95;95.12;99605.41;5075888;28;20051;-78
2024/03/30 04:42:15;;;;;;;51.13;30.75;;;;;;;15.17;94.53;99605.53;5075475;28;20047;-78
2024/03/30 04:45:20;;;;;;;59.53;31.00;;;;;;;14.99;94.98;99606.69;5063468;28;20047;-78
2024/03/30 04:48:26;;;;;;;56.95;31.15;;;;;;;15.04;95.13;99602.59;5075801;28;20055;-77
2024/03/30 04:51:31;;;;;;;56.95;33.55;;;;;;;14.57;96.54;99600.06;5093490;28;20055;-77
2024/03/30 04:54:35;;;;;;;57.25;32.30;;;;;;;14.92;96.09;99592.25;5095555;28;20462;-77
2024/03/30 04:57:40;;;;;;;63.75;33.55;;;;;;;14.96;95.64;99590.84;5095750;28;20051;-76
2024/03/30 05:00:44;;;;;;;62.50;33.33;;;;;;;14.93;95.41;99591.22;5095626;28;20071;-78
2024/03/30 05:03:49;;;;;;;56.25;32.60;;;;;;;15.21;95.10;99593.38;5095439;28;20071;-76
2024/03/30 05:06:54;;;;;;;65.80;34.80;;;;;;;15.20;94.35;99588.97;5095564;28;20071;-77
2024/03/30 05:09:59;;;;;;;59.00;33.05;;;;;;;15.19;94.30;99595.38;5083297;28;20062;-77
2024/03/30 05:13:06;;;;;;;64.13;33.65;;;;;;;15.14;94.95;99597.78;5095613;28;20051;-76
2024/03/30 05:16:10;;;;;;;59.80;33.28;;;;;;;15.29;94.85;99595.97;5082699;28;20071;-76
2024/03/30 05:22:38;;;;;;;53.58;33.05;;;;;;;15.28;94.63;99594.31;5095429;28;20047;-75
2024/03/30 05:25:44;;;;;;;52.83;31.23;;;;;;;15.38;95.19;99592.19;5090685;28;20502;-75
2024/03/30 05:28:48;;;;;;;53.20;32.25;;;;;;;15.16;95.54;99598.47;5079514;28;20055;-76
2024/03/30 05:31:56;;;;;;;54.67;32.90;;;;;;;15.03;96.10;99596.38;5095478;28;20039;-78
2024/03/30 05:35:04;;;;;;;52.90;31.50;;;;;;;15.21;95.77;99599.59;5095244;28;20063;-77
2024/03/30 05:38:08;;;;;;;61.03;32.85;;;;;;;15.38;94.52;99605.72;5094924;28;20055;-77
2024/03/30 05:41:13;;;;;;;64.72;33.83;;;;;;;15.44;94.69;99610.38;5094799;28;20074;-77
2024/03/30 05:44:17;;;;;;;62.20;33.90;;;;;;;15.35;94.77;99596.09;5082140;28;20079;-76
2024/03/30 05:47:25;;;;;;;64.00;35.63;;;;;;;15.38;94.69;99593.00;5082334;28;20382;-78
2024/03/30 05:50:29;;;;;;;62.40;33.92;;;;;;;15.45;94.80;99599.41;5094843;28;20055;-79
2024/03/30 05:53:34;;;;;;;62.00;32.80;;;;;;;15.45;94.64;99593.16;5094492;28;20051;-76
2024/03/30 05:56:38;;;;;;;55.03;32.80;;;;;;;15.70;93.52;99586.47;5072606;28;20075;-77
2024/03/30 05:59:43;;;;;;;58.28;33.88;;;;;;;15.72;93.68;99591.69;5074324;28;20050;-79
2024/03/30 06:02:48;;;;;;;57.17;34.25;;;;;;;15.68;93.30;99598.50;5072539;28;20051;-77
2024/03/30 06:05:52;;;;;;;60.08;33.35;;;;;;;15.30;95.08;99600.38;5074146;28;20063;-78
2024/03/30 06:08:57;;;;;;;57.60;31.50;;;;;;;15.28;95.11;99605.94;5074129;28;20055;-78
2024/03/30 06:12:03;;;;;;;63.90;34.95;;;;;;;15.46;95.08;99611.91;5073940;28;20068;-78
2024/03/30 06:15:09;;;;;;;65.13;35.28;;;;;;;15.35;95.48;99608.78;5073768;28;20043;-76
2024/03/30 06:18:13;;;;;;;67.35;35.22;;;;;;;15.40;95.11;99609.91;5074085;28;20044;-77
2024/03/30 06:21:18;;;;;;;64.38;35.05;;;;;;;15.39;95.30;99608.22;5073951;28;20490;-77
2024/03/30 06:24:23;;;;;;;67.50;35.35;;;;;;;15.39;95.61;99607.38;5073896;28;20051;-78
2024/03/30 06:27:28;;;;;;;64.60;34.08;;;;;;;15.49;95.82;99624.22;5071976;28;20110;-79
2024/03/30 06:30:35;;;;;;;62.50;33.40;;;;;;;15.53;95.54;99618.25;5072014;28;20055;-78
2024/03/30 06:33:40;;;;;;;64.57;32.60;;;;;;;15.59;95.64;99611.28;5064371;28;20047;-78
2024/03/30 06:36:45;;;;;;;56.85;32.03;;;;;;;15.65;95.17;99617.81;5052713;28;20052;-78
2024/03/30 06:46:39;;;;;;;61.72;31.20;;;;;;;15.70;95.58;99607.28;5059032;28;20048;-73
2024/03/30 06:49:43;;;;;;;65.47;31.63;;;;;;;15.66;96.10;99604.09;5072807;28;20422;-76
2024/03/30 06:52:48;;;;;;;59.88;28.33;;;;;;;15.88;95.76;99602.31;5057946;28;20051;-75
2024/03/30 06:55:53;;;;;;;57.85;28.00;;;;;;;16.04;95.00;99613.81;5054580;28;20076;-76
2024/03/30 06:59:00;;;;;;;55.35;26.45;;;;;;;15.99;94.57;99615.41;5052806;28;20051;-76
2024/03/30 07:02:04;;;;;;;58.75;27.70;;;;;;;16.28;93.60;99602.66;5052696;28;20522;-76
2024/03/30 07:05:14;;;;;;;58.78;25.83;;;;;;;16.16;94.27;99611.47;5052867;28;20056;-79
2024/03/30 07:08:18;;;;;;;48.70;27.20;;;;;;;16.31;94.11;99615.00;5052641;28;20060;-77
2024/03/30 07:11:23;;;;;;;58.88;26.83;;;;;;;16.33;94.32;99618.34;5053707;28;20056;-77
2024/03/30 07:14:28;;;;;;;53.97;25.92;;;;;;;16.31;94.48;99623.13;5053836;28;20352;-77
2024/03/30 07:17:34;;;;;;;55.15;25.02;;;;;;;16.67;93.43;99618.56;5053390;28;20044;-79
2024/03/30 07:20:39;;;;;;;55.13;26.27;;;;;;;16.81;92.65;99625.00;5053724;28;20052;-79
2024/03/30 07:23:44;;;;;;;48.85;23.58;;;;;;;16.80;92.86;99623.31;5053362;28;20048;-77
2024/03/30 07:26:52;;;;;;;59.35;24.05;;;;;;;16.83;91.07;99631.06;5052870;28;20526;-77
2024/03/30 07:29:56;;;;;;;45.33;19.85;;;;;;;16.77;91.86;99634.53;5052919;28;20048;-78
2024/03/30 07:33:01;;;;;;;47.72;19.42;;;;;;;16.76;91.58;99630.97;5051991;28;20048;-78
2024/03/30 07:36:06;;;;;;;59.50;21.05;;;;;;;16.87;91.11;99626.91;5052731;28;20081;-78
2024/03/30 07:39:10;;;;;;;50.25;18.45;;;;;;;16.83;91.03;99641.91;5058410;28;20047;-77
2024/03/30 07:42:15;;;;;;;55.42;19.77;;;;;;;16.59;91.87;99631.41;5072600;28;20055;-76
2024/03/30 07:45:20;;;;;;;44.45;17.50;;;;;;;16.59;91.75;99629.53;5072905;28;20482;-77
2024/03/30 07:48:27;;;;;;;51.22;17.98;;;;;;;16.52;91.51;99616.94;5070750;28;20407;-77
2024/03/30 07:51:32;;;;;;;46.15;18.10;;;;;;;16.50;91.65;99617.09;5072170;28;20056;-76
2024/03/30 07:54:36;;;;;;;53.88;18.63;;;;;;;16.61;91.05;99618.50;5071920;28;20067;-76
2024/03/30 07:57:41;;;;;;;41.65;16.90;;;;;;;16.70;90.80;99615.50;5080401;28;20051;-79
2024/03/30 08:00:45;;;;;;;48.72;19.63;;;;;;;16.70;91.17;99615.50;5080443;28;20047;-77
2024/03/30 08:03:50;;;;;;;58.53;18.20;;;;;;;16.64;90.60;99618.13;5092788;28;20051;-75
2024/03/30 08:06:56;;;;;;;49.17;18.65;;;;;;;16.80;89.71;99617.88;5092257;28;20502;-77
2024/03/30 08:10:01;;;;;;;46.22;18.05;;;;;;;16.84;89.28;99617.31;5096707;28;20059;-78
2024/03/30 08:13:05;;;;;;;61.03;19.75;;;;;;;16.64;90.27;99607.31;5096714;28;20106;-77
2024/03/30 08:16:10;;;;;;;61.05;17.35;;;;;;;16.62;91.05;99620.19;5096447;28;20047;-79
2024/03/30 08:19:16;;;;;;;54.15;17.58;;;;;;;16.89;90.74;99611.28;5096295;28;20055;-79
2024/03/30 08:22:21;;;;;;;46.78;16.92;;;;;;;16.92;90.60;99617.19;5096362;28;20043;-78
2024/03/30 08:25:26;;;;;;;48.25;16.13;;;;;;;16.93;90.55;99615.31;5096469;28;20058;-74
2024/03/30 08:28:30;;;;;;;48.50;16.80;;;;;;;16.97;90.68;99608.47;5096159;28;20047;-75
2024/03/30 08:31:35;;;;;;;50.03;18.55;;;;;;;16.97;90.40;99604.91;5096385;28;20407;-76
2024/03/30 08:34:42;;;;;;;59.60;16.98;;;;;;;17.03;89.75;99598.72;5096302;28;20059;-78
2024/03/30 08:37:46;;;;;;;41.10;15.90;;;;;;;16.99;90.19;99598.25;5089824;28;20055;-77
2024/03/30 08:40:53;;;;;;;48.03;18.05;;;;;;;16.80;90.73;99596.19;5084247;28;20055;-78
2024/03/30 08:43:58;;;;;;;53.25;17.42;;;;;;;16.81;90.75;99600.59;5083912;28;20489;-74
2024/03/30 08:47:03;;;;;;;52.83;15.32;;;;;;;17.00;90.56;99605.38;5096222;28;20394;-75
2024/03/30 08:50:08;;;;;;;54.13;16.35;;;;;;;17.11;90.45;99606.75;5096324;28;20047;-77
2024/03/30 08:53:13;;;;;;;55.22;18.42;;;;;;;17.05;90.48;99602.91;5096219;28;20090;-81
2024/03/30 08:56:18;;;;;;;42.28;15.40;;;;;;;17.36;89.99;99597.13;5095825;28;20055;-83
2024/03/30 08:59:27;;;;;;;49.47;13.95;;;;;;;17.30;89.12;99590.63;5096398;28;20047;-84
2024/03/30 09:02:32;;;;;;;47.67;13.18;;;;;;;17.25;87.90;99592.25;5089479;28;20122;-85
2024/03/30 09:05:37;;;;;;;48.83;12.73;;;;;;;17.16;89.13;99598.84;5079137;28;20052;-86
2024/03/30 09:08:41;;;;;;;46.92;14.15;;;;;;;17.20;89.12;99590.13;5087631;28;20501;-87
2024/03/30 09:11:46;;;;;;;46.55;12.82;;;;;;;17.11;89.89;99582.31;5070485;28;20411;-81
2024/03/30 09:14:53;;;;;;;34.55;12.13;;;;;;;17.34;89.05;99582.91;5095759;28;20055;-78
2024/03/30 09:18:00;;;;;;;56.53;13.50;;;;;;;17.42;89.79;99593.63;5086267;28;20092;-78
2024/03/30 09:21:07;;;;;;;55.00;12.80;;;;;;;17.97;87.86;99588.19;5079365;28;20102;-83
2024/03/30 09:24:12;;;;;;;46.22;10.23;;;;;;;18.14;85.77;99600.41;5082963;28;20489;-79
2024/03/30 09:27:17;;;;;;;42.35;10.90;;;;;;;18.33;84.91;99593.38;5095311;28;20047;-77
2024/03/30 09:30:22;;;;;;;54.17;12.13;;;;;;;18.26;84.14;99597.94;5094185;28;20050;-77
2024/03/30 09:33:26;;;;;;;49.60;11.10;;;;;;;18.07;83.70;99591.38;5074747;28;20395;-77
2024/03/30 09:36:31;;;;;;;49.40;10.90;;;;;;;18.05;83.75;99585.31;5074777;28;20059;-78
2024/03/30 09:39:36;;;;;;;46.92;10.13;;;;;;;17.76;84.21;99585.56;5075091;28;20051;-77
2024/03/30 09:42:42;;;;;;;49.05;10.98;;;;;;;18.24;82.45;99572.88;5063155;28;20051;-76
2024/03/30 09:45:48;;;;;;;43.80;9.43;;;;;;;18.53;81.16;99569.88;5094465;28;20055;-76
2024/03/30 09:48:56;;;;;;;38.78;9.52;;;;;;;18.98;80.84;99559.28;5094667;28;20047;-78
2024/03/30 09:52:04;;;;;;;46.78;11.10;;;;;;;19.34;77.94;99565.16;5082584;28;20055;-76
2024/03/30 09:55:15;;;;;;;40.10;10.02;;;;;;;19.36;78.11;99557.59;5094429;28;20048;-76
2024/03/30 09:58:19;;;;;;;48.55;10.20;;;;;;;19.84;76.51;99558.19;5082253;28;20051;-77
2024/03/30 10:01:24;;;;;;;39.83;9.75;;;;;;;20.31;73.42;99554.28;5094542;28;20043;-77
2024/03/30 10:04:29;;;;;;;48.35;8.68;;;;;;;19.84;73.50;99545.41;5093311;28;21938;-78
2024/03/30 10:07:43;;;;;;;50.67;8.63;;;;;;;19.89;74.28;99536.59;5077732;28;20064;-77
2024/03/30 10:10:53;;;;;;;48.00;9.50;;;;;;;19.69;74.66;99530.38;5073945;28;20048;-77
2024/03/30 10:14:16;;;;;;;41.38;10.20;;;;;;;19.72;74.91;99529.94;5073995;28;20044;-77
2024/03/30 10:17:20;;;;;;;41.25;7.82;;;;;;;19.85;75.19;99519.84;5074206;28;20067;-77
2024/03/30 10:20:25;;;;;;;57.45;9.75;;;;;;;19.35;76.17;99518.69;5074143;28;20495;-77
2024/03/30 10:23:30;;;;;;;38.80;8.70;;;;;;;19.58;76.54;99512.78;5090911;28;20426;-77
2024/03/30 10:26:36;;;;;;;50.63;9.48;;;;;;;19.51;76.36;99506.53;5081971;28;20047;-77
2024/03/30 10:29:44;;;;;;;42.83;8.52;;;;;;;19.72;75.79;99503.56;5086549;28;20414;-78
2024/03/30 10:32:48;;;;;;;36.38;8.80;;;;;;;19.29;77.75;99499.63;5094225;28;20090;-77
2024/03/30 10:35:55;;;;;;;52.20;9.30;;;;;;;19.23;78.01;99498.56;5092917;28;20051;-78
2024/03/30 10:39:00;;;;;;;43.15;8.63;;;;;;;19.61;76.83;99500.63;5093820;28;20075;-76
2024/03/30 10:42:05;;;;;;;38.90;8.23;;;;;;;19.47;76.77;99502.56;5073198;28;20035;-78
2024/03/30 10:45:10;;;;;;;60.63;10.73;;;;;;;19.32;77.24;99507.38;5075946;28;20047;-77
2024/03/30 10:48:15;;;;;;;46.75;8.60;;;;;;;19.54;76.46;99510.72;5075807;28;20501;-76
2024/03/30 10:51:21;;;;;;;54.05;9.57;;;;;;;19.59;76.62;99509.03;5082810;28;20048;-76
2024/03/30 10:54:26;;;;;;;45.80;8.43;;;;;;;19.47;76.35;99516.19;5080794;28;20055;-77
2024/03/30 10:57:30;;;;;;;38.35;9.35;;;;;;;19.72;74.39;99516.31;5072914;28;20047;-77
2024/03/30 11:00:35;;;;;;;44.33;8.65;;;;;;;19.82;74.43;99517.56;5073514;28;20048;-81
2024/03/30 11:03:41;;;;;;;42.85;9.30;;;;;;;20.18;73.22;99506.09;5083576;28;20402;-78
2024/03/30 11:06:47;;;;;;;37.85;7.53;;;;;;;20.28;72.07;99502.94;5081055;28;20514;-77
2024/03/30 11:09:52;;;;;;;49.78;8.57;;;;;;;20.17;71.68;99501.69;5083822;28;20063;-76
2024/03/30 11:12:59;;;;;;;36.45;8.15;;;;;;;20.16;72.54;99486.41;5093588;28;20391;-79
2024/03/30 11:16:07;;;;;;;45.13;8.50;;;;;;;20.66;71.27;99487.41;5088613;28;20505;-78
2024/03/30 11:19:22;;;;;;;46.25;10.50;;;;;;;21.09;69.63;99477.41;5086068;28;20051;-77
2024/03/30 11:22:32;;;;;;;49.10;8.73;;;;;;;21.12;69.50;99473.41;5083399;28;20047;-77
2024/03/30 11:25:44;;;;;;;45.72;8.93;;;;;;;21.46;69.22;99466.53;5084692;28;20051;-80
2024/03/30 11:28:58;;;;;;;51.58;8.68;;;;;;;21.45;68.21;99456.69;5088601;28;20055;-78
2024/03/30 11:32:19;;;;;;;65.28;9.13;;;;;;;21.42;67.92;99444.34;5090386;28;20052;-78
2024/03/30 11:35:32;;;;;;;45.42;8.13;;;;;;;21.24;69.86;99422.47;5067561;28;20052;-80
2024/03/30 11:38:38;;;;;;;39.83;9.52;;;;;;;20.82;71.25;99426.81;5072955;28;20052;-80
2024/03/30 11:41:48;;;;;;;57.50;7.80;;;;;;;20.57;72.74;99431.44;5060611;28;20052;-79
2024/03/30 11:44:54;;;;;;;40.05;7.45;;;;;;;21.15;70.99;99430.13;5077700;28;20051;-75
2024/03/30 11:48:00;;;;;;;47.92;8.25;;;;;;;20.66;72.14;99424.66;5089031;28;20043;-78
2024/03/30 11:51:17;;;;;;;42.65;8.15;;;;;;;20.92;71.65;99429.88;5077985;28;20399;-81
2024/03/30 11:54:25;;;;;;;49.75;9.50;;;;;;;20.69;72.90;99435.09;5076387;28;20059;-80
2024/03/30 11:57:29;;;;;;;52.30;9.85;;;;;;;20.78;73.13;99439.25;5037257;28;20384;-80
2024/03/30 12:00:50;;;;;;;37.22;7.88;;;;;;;21.20;71.88;99446.66;5036374;28;20053;-81
2024/03/30 12:03:58;;;;;;;53.65;7.97;;;;;;;21.50;70.54;99440.47;5036883;28;20048;-78
2024/03/30 12:07:06;;;;;;;53.47;8.10;;;;;;;21.69;70.01;99433.94;5037717;28;20150;-80
2024/03/30 12:10:14;;;;;;;42.55;8.23;;;;;;;21.56;70.78;99428.63;5038196;28;20400;-81
2024/03/30 12:13:22;;;;;;;50.67;9.30;;;;;;;21.13;72.06;99418.56;5040213;28;20457;-84
2024/03/30 12:16:28;;;;;;;43.70;7.68;;;;;;;21.13;71.92;99409.59;5038177;28;20048;-83
2024/03/30 12:19:34;;;;;;;45.70;8.10;;;;;;;21.33;71.39;99402.03;5038106;28;20223;-88
2024/03/30 12:22:39;;;;;;;55.95;9.48;;;;;;;20.71;73.90;99397.56;5064068;28;20372;-82
2024/03/30 12:25:47;;;;;;;47.40;8.68;;;;;;;20.88;73.04;99400.56;5057249;28;20048;-77
2024/03/30 12:28:52;;;;;;;39.72;8.57;;;;;;;20.59;75.15;99402.88;5054350;28;20399;-76
2024/03/30 12:31:56;;;;;;;34.60;6.60;;;;;;;21.39;72.25;99396.47;5054883;28;20044;-75
2024/03/30 12:35:00;;;;;;;46.85;7.90;;;;;;;21.38;72.93;99394.78;5056285;28;20052;-75
2024/03/30 12:38:06;;;;;;;41.92;8.57;;;;;;;21.42;72.90;99388.88;5048696;28;20392;-75
2024/03/30 12:41:10;;;;;;;46.17;7.80;;;;;;;21.17;73.97;99387.06;5035990;28;20052;-75
2024/03/30 12:44:15;;;;;;;41.63;7.80;;;;;;;21.28;74.05;99375.38;5035378;28;20052;-75
2024/03/30 12:47:20;;;;;;;58.45;9.50;;;;;;;20.76;75.74;99367.72;5035611;28;20408;-74
2024/03/30 12:50:26;;;;;;;50.20;8.60;;;;;;;21.09;75.17;99357.34;5036112;28;20048;-80
2024/03/30 12:53:32;;;;;;;45.25;8.18;;;;;;;21.47;74.28;99356.28;5036011;28;20060;-77
2024/03/30 12:56:36;;;;;;;45.90;9.07;;;;;;;21.64;73.06;99346.38;5050875;28;20503;-73
2024/03/30 12:59:41;;;;;;;39.05;8.70;;;;;;;21.27;74.12;99338.25;5055899;28;20052;-82
2024/03/30 13:02:55;;;;;;;55.08;9.82;;;;;;;21.02;76.05;99328.41;5064339;28;20063;-80
2024/03/30 13:06:00;;;;;;;54.00;10.15;;;;;;;20.87;76.67;99325.22;5075508;28;20136;-77
2024/03/30 13:09:05;;;;;;;52.95;8.90;;;;;;;20.93;76.99;99316.97;5075531;28;20051;-77
2024/03/30 13:12:09;;;;;;;51.60;7.90;;;;;;;21.05;76.58;99319.78;5075457;28;20052;-77
2024/03/30 13:15:14;;;;;;;43.35;7.43;;;;;;;21.15;75.76;99315.50;5075134;28;20051;-77
2024/03/30 13:18:19;;;;;;;42.10;8.30;;;;;;;21.09;77.16;99310.94;5075274;28;20055;-76
2024/03/30 13:21:25;;;;;;;52.80;9.25;;;;;;;21.24;76.60;99303.19;5074390;28;20064;-77
2024/03/30 13:24:30;;;;;;;47.38;8.65;;;;;;;21.07;77.08;99302.16;5075404;28;20391;-78
2024/03/30 13:27:35;;;;;;;60.05;8.63;;;;;;;21.21;77.12;99302.81;5075282;28;20068;-78
2024/03/30 13:30:40;;;;;;;39.58;7.72;;;;;;;20.98;78.87;99306.22;5075411;28;20063;-77
2024/03/30 13:33:45;;;;;;;44.88;8.90;;;;;;;20.86;79.95;99312.66;5074849;28;20048;-78
2024/03/30 13:36:52;;;;;;;39.42;7.47;;;;;;;20.86;79.76;99307.19;5073736;28;20052;-76
2024/03/30 13:39:58;;;;;;;43.35;8.20;;;;;;;20.73;80.63;99306.28;5074720;28;20498;-77
2024/03/30 13:43:02;;;;;;;42.20;7.22;;;;;;;20.84;81.74;99323.78;5074840;28;20415;-78
2024/03/30 13:46:07;;;;;;;45.70;7.28;;;;;;;20.51;83.53;99324.13;5074552;28;20052;-79
2024/03/30 13:49:12;;;;;;;43.90;7.97;;;;;;;20.50;83.62;99327.03;5074731;28;20052;-77
2024/03/30 13:52:17;;;;;;;53.47;7.20;;;;;;;20.43;84.45;99339.91;5074198;28;20064;-77
2024/03/30 13:55:22;;;;;;;38.33;8.65;;;;;;;20.35;85.78;99340.16;5080533;28;20229;-78
2024/03/30 13:58:29;;;;;;;38.67;7.28;;;;;;;20.22;86.80;99337.53;5094591;28;20071;-76
2024/03/30 14:01:34;;;;;;;43.15;7.75;;;;;;;19.66;88.54;99330.13;5094593;28;20071;-78
2024/03/30 14:04:38;;;;;;;43.92;7.00;;;;;;;19.85;87.92;99326.44;5094738;28;20118;-77
2024/03/30 14:07:43;;;;;;;46.85;7.97;;;;;;;19.89;87.87;99302.34;5093857;28;20062;-77
2024/03/30 14:10:48;;;;;;;38.30;6.13;;;;;;;19.38;88.30;99310.63;5094426;28;20051;-79
2024/03/30 14:13:52;;;;;;;34.58;7.00;;;;;;;19.38;88.55;99308.69;5094199;28;20485;-76
2024/03/30 14:16:57;;;;;;;33.80;5.97;;;;;;;19.23;88.64;99316.25;5094039;28;20047;-77
2024/03/30 14:20:08;;;;;;;44.33;6.45;;;;;;;19.23;88.56;99310.81;5094322;28;20399;-77
2024/03/30 14:23:12;;;;;;;37.58;7.20;;;;;;;19.44;88.15;99309.72;5094280;28;20054;-77
2024/03/30 14:26:16;;;;;;;36.92;6.85;;;;;;;19.47;87.81;99328.34;5094027;28;20055;-80